sensor_id;sensor_type;location;lat;lon;timestamp;temperature;humidity
23827;DHT22;12094;50.822;4.376;2023-03-21T00:00:58;10.80;99.90
23827;DHT22;12094;50.822;4.376;2023-03-21T00:03:27;10.80;99.90
23827;DHT22;12094;50.822;4.376;2023-03-21T00:05:58;10.80;99.90
23827;DHT22;12094;50.822;4.376;2023-03-21T00:08:29;10.80;99.90
23827;DHT22;12094;50.822;4.376;2023-03-21T00:11:07;10.80;99.90
23827;DHT22;12094;50.822;4.376;2023-03-21T00:13:35;10.80;99.90
23827;DHT22;12094;50.822;4.376;2023-03-21T00:16:18;10.80;99.90
23827;DHT22;12094;50.822;4.376;2023-03-21T00:19:08;10.80;99.90
23827;DHT22;12094;50.822;4.376;2023-03-21T00:21:39;10.80;99.90
23827;DHT22;12094;50.822;4.376;2023-03-21T00:24:28;10.70;99.90
23827;DHT22;12094;50.822;4.376;2023-03-21T00:26:59;10.60;99.90
23827;DHT22;12094;50.822;4.376;2023-03-21T00:29:48;10.70;99.90
23827;DHT22;12094;50.822;4.376;2023-03-21T00:32:21;10.70;99.90
23827;DHT22;12094;50.822;4.376;2023-03-21T00:34:51;10.70;99.90
23827;DHT22;12094;50.822;4.376;2023-03-21T00:41:52;10.80;99.90
23827;DHT22;12094;50.822;4.376;2023-03-21T00:44:25;10.80;99.90
23827;DHT22;12094;50.822;4.376;2023-03-21T00:46:54;10.70;99.90
23827;DHT22;12094;50.822;4.376;2023-03-21T00:49:33;10.70;99.90
23827;DHT22;12094;50.822;4.376;2023-03-21T00:52:06;10.70;99.90
23827;DHT22;12094;50.822;4.376;2023-03-21T00:54:46;10.70;99.90
23827;DHT22;12094;50.822;4.376;2023-03-21T00:57:16;10.80;99.90
23827;DHT22;12094;50.822;4.376;2023-03-21T00:59:50;10.70;99.90
23827;DHT22;12094;50.822;4.376;2023-03-21T01:02:20;10.80;99.90
23827;DHT22;12094;50.822;4.376;2023-03-21T01:04:50;10.70;99.90
23827;DHT22;12094;50.822;4.376;2023-03-21T01:07:21;10.70;99.90
23827;DHT22;12094;50.822;4.376;2023-03-21T01:09:52;10.70;99.90
23827;DHT22;12094;50.822;4.376;2023-03-21T01:12:22;10.80;99.90
23827;DHT22;12094;50.822;4.376;2023-03-21T01:14:50;10.80;99.90
23827;DHT22;12094;50.822;4.376;2023-03-21T01:17:20;10.70;99.90
23827;DHT22;12094;50.822;4.376;2023-03-21T01:19:47;10.70;99.90
23827;DHT22;12094;50.822;4.376;2023-03-21T01:22:27;10.80;99.90
23827;DHT22;12094;50.822;4.376;2023-03-21T01:24:54;10.80;99.90
23827;DHT22;12094;50.822;4.376;2023-03-21T01:27:42;10.80;99.90
23827;DHT22;12094;50.822;4.376;2023-03-21T01:30:13;10.80;99.90
23827;DHT22;12094;50.822;4.376;2023-03-21T01:32:57;10.80;99.90
23827;DHT22;12094;50.822;4.376;2023-03-21T01:35:25;10.90;99.90
23827;DHT22;12094;50.822;4.376;2023-03-21T01:38:06;10.80;99.90
23827;DHT22;12094;50.822;4.376;2023-03-21T01:40:39;10.80;99.90
23827;DHT22;12094;50.822;4.376;2023-03-21T01:43:32;10.90;99.90
23827;DHT22;12094;50.822;4.376;2023-03-21T01:49:53;10.90;99.90
23827;DHT22;12094;50.822;4.376;2023-03-21T01:52:35;10.90;99.90
23827;DHT22;12094;50.822;4.376;2023-03-21T01:55:31;10.90;99.90
23827;DHT22;12094;50.822;4.376;2023-03-21T01:58:09;10.80;99.90
23827;DHT22;12094;50.822;4.376;2023-03-21T02:00:48;10.90;99.90
23827;DHT22;12094;50.822;4.376;2023-03-21T02:03:28;10.90;99.90
23827;DHT22;12094;50.822;4.376;2023-03-21T02:09:13;10.80;99.90
23827;DHT22;12094;50.822;4.376;2023-03-21T02:11:48;10.90;99.90
23827;DHT22;12094;50.822;4.376;2023-03-21T02:14:19;10.90;99.90
23827;DHT22;12094;50.822;4.376;2023-03-21T02:17:32;11.00;99.90
23827;DHT22;12094;50.822;4.376;2023-03-21T02:26:59;11.00;99.90
23827;DHT22;12094;50.822;4.376;2023-03-21T02:29:50;11.00;99.90
23827;DHT22;12094;50.822;4.376;2023-03-21T02:32:41;11.00;99.90
23827;DHT22;12094;50.822;4.376;2023-03-21T02:38:29;11.20;99.90
23827;DHT22;12094;50.822;4.376;2023-03-21T02:41:02;11.20;99.90
23827;DHT22;12094;50.822;4.376;2023-03-21T02:43:46;11.30;99.90
23827;DHT22;12094;50.822;4.376;2023-03-21T02:46:19;11.40;99.90
23827;DHT22;12094;50.822;4.376;2023-03-21T02:51:36;11.50;99.90
23827;DHT22;12094;50.822;4.376;2023-03-21T02:54:12;11.40;99.90
23827;DHT22;12094;50.822;4.376;2023-03-21T02:57:05;11.40;99.90
23827;DHT22;12094;50.822;4.376;2023-03-21T02:59:34;11.40;99.90
23827;DHT22;12094;50.822;4.376;2023-03-21T03:02:20;11.40;99.90
23827;DHT22;12094;50.822;4.376;2023-03-21T03:04:49;11.50;99.90
23827;DHT22;12094;50.822;4.376;2023-03-21T03:07:38;11.40;99.90
23827;DHT22;12094;50.822;4.376;2023-03-21T03:21:28;11.40;99.90
23827;DHT22;12094;50.822;4.376;2023-03-21T03:24:20;11.40;99.90
23827;DHT22;12094;50.822;4.376;2023-03-21T03:27:14;11.40;99.90
23827;DHT22;12094;50.822;4.376;2023-03-21T03:29:45;11.50;99.90
23827;DHT22;12094;50.822;4.376;2023-03-21T03:32:25;11.50;99.90
23827;DHT22;12094;50.822;4.376;2023-03-21T03:34:56;11.40;99.90
23827;DHT22;12094;50.822;4.376;2023-03-21T03:37:33;11.40;99.90
23827;DHT22;12094;50.822;4.376;2023-03-21T03:40:15;11.40;99.90
23827;DHT22;12094;50.822;4.376;2023-03-21T03:43:08;11.40;99.90
23827;DHT22;12094;50.822;4.376;2023-03-21T03:45:59;11.40;99.90
23827;DHT22;12094;50.822;4.376;2023-03-21T03:48:41;11.30;99.90
23827;DHT22;12094;50.822;4.376;2023-03-21T03:51:36;11.20;99.90
23827;DHT22;12094;50.822;4.376;2023-03-21T03:54:35;11.30;99.90
23827;DHT22;12094;50.822;4.376;2023-03-21T03:57:07;11.30;99.90
23827;DHT22;12094;50.822;4.376;2023-03-21T03:59:37;11.30;99.90
23827;DHT22;12094;50.822;4.376;2023-03-21T04:02:28;11.20;99.90
23827;DHT22;12094;50.822;4.376;2023-03-21T04:05:01;11.20;99.90
23827;DHT22;12094;50.822;4.376;2023-03-21T04:07:32;11.20;99.90
23827;DHT22;12094;50.822;4.376;2023-03-21T04:10:03;11.30;99.90
23827;DHT22;12094;50.822;4.376;2023-03-21T04:12:39;11.30;99.90
23827;DHT22;12094;50.822;4.376;2023-03-21T04:15:20;11.30;99.90
23827;DHT22;12094;50.822;4.376;2023-03-21T04:17:59;11.20;99.90
23827;DHT22;12094;50.822;4.376;2023-03-21T04:20:29;11.30;99.90
23827;DHT22;12094;50.822;4.376;2023-03-21T04:23:05;11.20;99.90
23827;DHT22;12094;50.822;4.376;2023-03-21T04:25:33;11.20;99.90
23827;DHT22;12094;50.822;4.376;2023-03-21T04:28:30;11.30;99.90
23827;DHT22;12094;50.822;4.376;2023-03-21T04:31:17;11.30;99.90
23827;DHT22;12094;50.822;4.376;2023-03-21T04:34:01;11.30;99.90
23827;DHT22;12094;50.822;4.376;2023-03-21T04:36:31;11.20;99.90
23827;DHT22;12094;50.822;4.376;2023-03-21T04:42:41;11.20;99.90
23827;DHT22;12094;50.822;4.376;2023-03-21T04:45:15;11.20;99.90
23827;DHT22;12094;50.822;4.376;2023-03-21T04:47:46;11.20;99.90
23827;DHT22;12094;50.822;4.376;2023-03-21T04:50:19;11.20;99.90
23827;DHT22;12094;50.822;4.376;2023-03-21T04:52:47;11.30;99.90
23827;DHT22;12094;50.822;4.376;2023-03-21T04:55:17;11.30;99.90
23827;DHT22;12094;50.822;4.376;2023-03-21T04:57:49;11.30;99.90
23827;DHT22;12094;50.822;4.376;2023-03-21T05:00:26;11.40;99.90
23827;DHT22;12094;50.822;4.376;2023-03-21T05:02:54;11.40;99.90
23827;DHT22;12094;50.822;4.376;2023-03-21T05:05:41;11.40;99.90
23827;DHT22;12094;50.822;4.376;2023-03-21T05:08:11;11.40;99.90
23827;DHT22;12094;50.822;4.376;2023-03-21T05:10:39;11.30;99.90
23827;DHT22;12094;50.822;4.376;2023-03-21T05:13:09;11.30;99.90
23827;DHT22;12094;50.822;4.376;2023-03-21T05:15:44;11.40;99.90
23827;DHT22;12094;50.822;4.376;2023-03-21T05:18:12;11.40;99.90
23827;DHT22;12094;50.822;4.376;2023-03-21T05:21:00;11.40;99.90
23827;DHT22;12094;50.822;4.376;2023-03-21T05:23:30;11.40;99.90
23827;DHT22;12094;50.822;4.376;2023-03-21T05:26:06;11.40;99.90
23827;DHT22;12094;50.822;4.376;2023-03-21T05:28:52;11.40;99.90
23827;DHT22;12094;50.822;4.376;2023-03-21T05:31:21;11.40;99.90
23827;DHT22;12094;50.822;4.376;2023-03-21T05:34:01;11.40;99.90
23827;DHT22;12094;50.822;4.376;2023-03-21T05:36:34;11.40;99.90
23827;DHT22;12094;50.822;4.376;2023-03-21T05:39:28;11.40;99.90
23827;DHT22;12094;50.822;4.376;2023-03-21T05:42:01;11.40;99.90
23827;DHT22;12094;50.822;4.376;2023-03-21T05:48:42;11.50;99.90
23827;DHT22;12094;50.822;4.376;2023-03-21T05:51:15;11.40;99.90
23827;DHT22;12094;50.822;4.376;2023-03-21T05:53:46;11.40;99.90
23827;DHT22;12094;50.822;4.376;2023-03-21T05:56:17;11.50;99.90
23827;DHT22;12094;50.822;4.376;2023-03-21T05:59:00;11.40;99.90
23827;DHT22;12094;50.822;4.376;2023-03-21T06:01:32;11.40;99.90
23827;DHT22;12094;50.822;4.376;2023-03-21T06:04:11;11.40;99.90
23827;DHT22;12094;50.822;4.376;2023-03-21T06:06:41;11.40;99.90
23827;DHT22;12094;50.822;4.376;2023-03-21T06:09:09;11.30;99.90
23827;DHT22;12094;50.822;4.376;2023-03-21T06:11:45;11.10;99.90
23827;DHT22;12094;50.822;4.376;2023-03-21T06:14:33;11.00;99.90
23827;DHT22;12094;50.822;4.376;2023-03-21T06:17:31;11.00;99.90
23827;DHT22;12094;50.822;4.376;2023-03-21T06:20:04;10.90;99.90
23827;DHT22;12094;50.822;4.376;2023-03-21T06:22:44;10.80;99.90
23827;DHT22;12094;50.822;4.376;2023-03-21T06:25:17;10.80;99.90
23827;DHT22;12094;50.822;4.376;2023-03-21T06:27:44;10.90;99.90
23827;DHT22;12094;50.822;4.376;2023-03-21T06:30:11;10.90;99.90
23827;DHT22;12094;50.822;4.376;2023-03-21T06:32:50;10.80;99.90
23827;DHT22;12094;50.822;4.376;2023-03-21T06:35:25;10.70;99.90
23827;DHT22;12094;50.822;4.376;2023-03-21T06:38:01;10.70;99.90
23827;DHT22;12094;50.822;4.376;2023-03-21T06:40:37;10.70;99.90
23827;DHT22;12094;50.822;4.376;2023-03-21T06:43:07;10.70;99.90
23827;DHT22;12094;50.822;4.376;2023-03-21T06:45:35;10.80;99.90
23827;DHT22;12094;50.822;4.376;2023-03-21T06:48:05;10.80;99.90
23827;DHT22;12094;50.822;4.376;2023-03-21T06:50:48;10.70;99.90
23827;DHT22;12094;50.822;4.376;2023-03-21T06:53:19;10.70;99.90
23827;DHT22;12094;50.822;4.376;2023-03-21T06:56:09;10.70;99.90
23827;DHT22;12094;50.822;4.376;2023-03-21T06:58:40;10.70;99.90
23827;DHT22;12094;50.822;4.376;2023-03-21T07:01:15;10.70;99.90
23827;DHT22;12094;50.822;4.376;2023-03-21T07:03:57;10.70;99.90
23827;DHT22;12094;50.822;4.376;2023-03-21T07:06:27;10.80;99.90
23827;DHT22;12094;50.822;4.376;2023-03-21T07:08:57;10.80;99.90
23827;DHT22;12094;50.822;4.376;2023-03-21T07:11:26;10.80;99.90
23827;DHT22;12094;50.822;4.376;2023-03-21T07:14:04;10.80;99.90
23827;DHT22;12094;50.822;4.376;2023-03-21T07:16:32;10.80;99.90
23827;DHT22;12094;50.822;4.376;2023-03-21T07:19:05;10.80;99.90
23827;DHT22;12094;50.822;4.376;2023-03-21T07:21:58;10.80;99.90
23827;DHT22;12094;50.822;4.376;2023-03-21T07:24:36;10.80;99.90
23827;DHT22;12094;50.822;4.376;2023-03-21T07:27:04;10.90;99.90
23827;DHT22;12094;50.822;4.376;2023-03-21T07:29:34;10.90;99.90
23827;DHT22;12094;50.822;4.376;2023-03-21T07:32:01;11.00;99.90
23827;DHT22;12094;50.822;4.376;2023-03-21T07:34:28;11.00;99.90
23827;DHT22;12094;50.822;4.376;2023-03-21T07:37:04;11.10;99.90
23827;DHT22;12094;50.822;4.376;2023-03-21T07:39:34;11.10;99.90
23827;DHT22;12094;50.822;4.376;2023-03-21T07:42:02;11.00;99.90
23827;DHT22;12094;50.822;4.376;2023-03-21T07:44:36;11.00;99.90
23827;DHT22;12094;50.822;4.376;2023-03-21T07:47:05;11.10;99.90
23827;DHT22;12094;50.822;4.376;2023-03-21T07:49:33;11.10;99.90
23827;DHT22;12094;50.822;4.376;2023-03-21T07:52:05;11.10;99.90
23827;DHT22;12094;50.822;4.376;2023-03-21T07:54:34;11.00;99.90
23827;DHT22;12094;50.822;4.376;2023-03-21T07:57:02;11.20;99.90
23827;DHT22;12094;50.822;4.376;2023-03-21T07:59:30;11.10;99.90
23827;DHT22;12094;50.822;4.376;2023-03-21T08:01:57;11.10;99.90
23827;DHT22;12094;50.822;4.376;2023-03-21T08:04:24;11.10;99.90
23827;DHT22;12094;50.822;4.376;2023-03-21T08:06:53;11.10;99.90
23827;DHT22;12094;50.822;4.376;2023-03-21T08:09:20;11.10;99.90
23827;DHT22;12094;50.822;4.376;2023-03-21T08:11:47;11.20;99.90
23827;DHT22;12094;50.822;4.376;2023-03-21T08:14:15;11.20;99.90
23827;DHT22;12094;50.822;4.376;2023-03-21T08:16:44;11.20;99.90
23827;DHT22;12094;50.822;4.376;2023-03-21T08:19:13;11.30;99.90
23827;DHT22;12094;50.822;4.376;2023-03-21T08:21:49;11.20;99.90
23827;DHT22;12094;50.822;4.376;2023-03-21T08:24:21;11.20;99.90
23827;DHT22;12094;50.822;4.376;2023-03-21T08:27:15;11.20;99.90
23827;DHT22;12094;50.822;4.376;2023-03-21T08:29:43;11.30;99.90
23827;DHT22;12094;50.822;4.376;2023-03-21T08:32:12;11.30;99.90
23827;DHT22;12094;50.822;4.376;2023-03-21T08:34:40;11.30;99.90
23827;DHT22;12094;50.822;4.376;2023-03-21T08:37:08;11.30;99.90
23827;DHT22;12094;50.822;4.376;2023-03-21T08:39:35;11.40;99.90
23827;DHT22;12094;50.822;4.376;2023-03-21T08:42:03;11.40;99.90
23827;DHT22;12094;50.822;4.376;2023-03-21T08:44:36;11.50;99.90
23827;DHT22;12094;50.822;4.376;2023-03-21T08:47:09;11.50;99.90
23827;DHT22;12094;50.822;4.376;2023-03-21T08:49:37;11.50;99.90
23827;DHT22;12094;50.822;4.376;2023-03-21T08:52:07;11.60;99.90
23827;DHT22;12094;50.822;4.376;2023-03-21T08:54:35;11.60;99.90
23827;DHT22;12094;50.822;4.376;2023-03-21T08:57:07;11.70;99.90
23827;DHT22;12094;50.822;4.376;2023-03-21T08:59:40;11.70;99.90
23827;DHT22;12094;50.822;4.376;2023-03-21T09:02:23;11.80;99.90
23827;DHT22;12094;50.822;4.376;2023-03-21T09:04:52;11.90;99.90
23827;DHT22;12094;50.822;4.376;2023-03-21T09:07:21;11.80;99.90
23827;DHT22;12094;50.822;4.376;2023-03-21T09:09:52;12.00;99.90
23827;DHT22;12094;50.822;4.376;2023-03-21T09:12:48;12.10;99.90
23827;DHT22;12094;50.822;4.376;2023-03-21T09:15:44;12.10;99.90
23827;DHT22;12094;50.822;4.376;2023-03-21T09:18:31;12.20;99.90
23827;DHT22;12094;50.822;4.376;2023-03-21T09:21:36;12.10;99.90
23827;DHT22;12094;50.822;4.376;2023-03-21T09:24:04;12.00;99.90
23827;DHT22;12094;50.822;4.376;2023-03-21T09:26:36;12.00;99.90
23827;DHT22;12094;50.822;4.376;2023-03-21T09:29:12;12.00;99.90
23827;DHT22;12094;50.822;4.376;2023-03-21T09:31:39;12.00;99.90
23827;DHT22;12094;50.822;4.376;2023-03-21T09:34:10;12.00;99.90
23827;DHT22;12094;50.822;4.376;2023-03-21T09:36:41;11.90;99.90
23827;DHT22;12094;50.822;4.376;2023-03-21T09:39:18;11.80;99.90
23827;DHT22;12094;50.822;4.376;2023-03-21T09:42:07;11.90;99.90
23827;DHT22;12094;50.822;4.376;2023-03-21T09:45:09;12.00;99.90
23827;DHT22;12094;50.822;4.376;2023-03-21T09:47:50;12.00;99.90
23827;DHT22;12094;50.822;4.376;2023-03-21T09:50:30;12.00;99.90
23827;DHT22;12094;50.822;4.376;2023-03-21T09:53:12;12.10;99.90
23827;DHT22;12094;50.822;4.376;2023-03-21T09:55:42;12.30;99.90
23827;DHT22;12094;50.822;4.376;2023-03-21T09:58:33;12.60;99.90
23827;DHT22;12094;50.822;4.376;2023-03-21T10:01:28;12.60;99.90
23827;DHT22;12094;50.822;4.376;2023-03-21T10:04:07;12.50;99.90
23827;DHT22;12094;50.822;4.376;2023-03-21T10:06:39;12.60;99.90
23827;DHT22;12094;50.822;4.376;2023-03-21T10:09:15;12.70;99.90
23827;DHT22;12094;50.822;4.376;2023-03-21T10:12:05;12.60;99.90
23827;DHT22;12094;50.822;4.376;2023-03-21T10:14:47;12.60;99.90
23827;DHT22;12094;50.822;4.376;2023-03-21T10:17:37;12.70;99.90
23827;DHT22;12094;50.822;4.376;2023-03-21T10:22:38;12.60;99.90
23827;DHT22;12094;50.822;4.376;2023-03-21T10:25:17;12.60;99.90
23827;DHT22;12094;50.822;4.376;2023-03-21T10:27:54;12.70;99.90
23827;DHT22;12094;50.822;4.376;2023-03-21T10:30:41;12.80;99.90
23827;DHT22;12094;50.822;4.376;2023-03-21T10:33:13;12.80;99.90
23827;DHT22;12094;50.822;4.376;2023-03-21T10:35:48;12.70;99.90
23827;DHT22;12094;50.822;4.376;2023-03-21T10:38:20;12.80;99.90
23827;DHT22;12094;50.822;4.376;2023-03-21T10:40:49;12.90;99.90
23827;DHT22;12094;50.822;4.376;2023-03-21T10:45:56;13.10;99.90
23827;DHT22;12094;50.822;4.376;2023-03-21T10:48:26;13.30;99.90
23827;DHT22;12094;50.822;4.376;2023-03-21T10:51:00;13.40;99.90
23827;DHT22;12094;50.822;4.376;2023-03-21T10:53:32;13.40;99.90
23827;DHT22;12094;50.822;4.376;2023-03-21T10:56:01;13.50;99.90
23827;DHT22;12094;50.822;4.376;2023-03-21T10:58:37;13.60;99.90
23827;DHT22;12094;50.822;4.376;2023-03-21T11:01:09;13.60;99.90
23827;DHT22;12094;50.822;4.376;2023-03-21T11:03:45;13.60;99.90
23827;DHT22;12094;50.822;4.376;2023-03-21T11:08:54;13.80;99.90
23827;DHT22;12094;50.822;4.376;2023-03-21T11:11:38;14.00;99.90
23827;DHT22;12094;50.822;4.376;2023-03-21T11:14:44;14.20;99.90
23827;DHT22;12094;50.822;4.376;2023-03-21T11:17:19;14.40;99.90
23827;DHT22;12094;50.822;4.376;2023-03-21T11:20:02;14.40;99.90
23827;DHT22;12094;50.822;4.376;2023-03-21T11:22:40;14.40;99.90
23827;DHT22;12094;50.822;4.376;2023-03-21T11:25:38;14.50;99.90
23827;DHT22;12094;50.822;4.376;2023-03-21T11:28:17;14.40;99.90
23827;DHT22;12094;50.822;4.376;2023-03-21T11:31:00;14.10;99.90
23827;DHT22;12094;50.822;4.376;2023-03-21T11:33:43;13.90;99.90
23827;DHT22;12094;50.822;4.376;2023-03-21T11:39:45;13.70;99.90
23827;DHT22;12094;50.822;4.376;2023-03-21T11:42:31;13.70;99.90
23827;DHT22;12094;50.822;4.376;2023-03-21T11:45:31;13.70;99.90
23827;DHT22;12094;50.822;4.376;2023-03-21T11:48:12;14.20;99.90
23827;DHT22;12094;50.822;4.376;2023-03-21T11:50:46;15.00;99.90
23827;DHT22;12094;50.822;4.376;2023-03-21T11:53:36;15.70;99.90
23827;DHT22;12094;50.822;4.376;2023-03-21T12:10:25;14.60;99.90
23827;DHT22;12094;50.822;4.376;2023-03-21T12:19:20;14.40;99.90
23827;DHT22;12094;50.822;4.376;2023-03-21T12:25:42;14.50;99.90
23827;DHT22;12094;50.822;4.376;2023-03-21T12:32:00;14.60;99.90
23827;DHT22;12094;50.822;4.376;2023-03-21T12:35:19;14.90;99.90
23827;DHT22;12094;50.822;4.376;2023-03-21T12:38:15;15.10;99.90
23827;DHT22;12094;50.822;4.376;2023-03-21T12:43:50;14.70;99.90
23827;DHT22;12094;50.822;4.376;2023-03-21T12:46:23;14.60;99.90
23827;DHT22;12094;50.822;4.376;2023-03-21T12:49:00;14.60;99.90
23827;DHT22;12094;50.822;4.376;2023-03-21T12:51:36;14.90;99.90
23827;DHT22;12094;50.822;4.376;2023-03-21T12:54:31;15.10;99.90
23827;DHT22;12094;50.822;4.376;2023-03-21T13:02:38;14.60;99.90
23827;DHT22;12094;50.822;4.376;2023-03-21T13:05:33;14.50;99.90
23827;DHT22;12094;50.822;4.376;2023-03-21T13:10:41;14.80;99.90
23827;DHT22;12094;50.822;4.376;2023-03-21T13:14:10;14.90;99.90
23827;DHT22;12094;50.822;4.376;2023-03-21T13:16:36;14.90;99.90
23827;DHT22;12094;50.822;4.376;2023-03-21T13:22:27;14.70;99.90
23827;DHT22;12094;50.822;4.376;2023-03-21T13:25:04;14.60;99.90
23827;DHT22;12094;50.822;4.376;2023-03-21T13:27:36;14.50;99.90
23827;DHT22;12094;50.822;4.376;2023-03-21T13:30:35;14.60;99.90
23827;DHT22;12094;50.822;4.376;2023-03-21T13:33:06;14.80;99.90
23827;DHT22;12094;50.822;4.376;2023-03-21T13:35:40;14.80;99.90
23827;DHT22;12094;50.822;4.376;2023-03-21T13:38:16;14.80;99.90
23827;DHT22;12094;50.822;4.376;2023-03-21T13:41:12;15.00;99.90
23827;DHT22;12094;50.822;4.376;2023-03-21T13:43:51;15.00;99.90
23827;DHT22;12094;50.822;4.376;2023-03-21T13:49:00;14.60;99.90
23827;DHT22;12094;50.822;4.376;2023-03-21T13:51:52;14.70;99.90
23827;DHT22;12094;50.822;4.376;2023-03-21T13:54:44;14.80;99.90
23827;DHT22;12094;50.822;4.376;2023-03-21T14:00:15;15.00;99.90
23827;DHT22;12094;50.822;4.376;2023-03-21T14:03:14;14.90;99.90
23827;DHT22;12094;50.822;4.376;2023-03-21T14:06:16;14.90;99.90
23827;DHT22;12094;50.822;4.376;2023-03-21T14:08:46;14.90;99.90
23827;DHT22;12094;50.822;4.376;2023-03-21T14:11:39;15.00;99.90
23827;DHT22;12094;50.822;4.376;2023-03-21T14:14:13;15.10;99.90
23827;DHT22;12094;50.822;4.376;2023-03-21T14:16:43;14.80;99.90
23827;DHT22;12094;50.822;4.376;2023-03-21T14:19:11;14.80;99.90
23827;DHT22;12094;50.822;4.376;2023-03-21T14:21:46;14.70;99.90
23827;DHT22;12094;50.822;4.376;2023-03-21T14:24:19;14.60;99.90
23827;DHT22;12094;50.822;4.376;2023-03-21T14:26:53;14.40;99.90
23827;DHT22;12094;50.822;4.376;2023-03-21T14:29:32;14.20;99.90
23827;DHT22;12094;50.822;4.376;2023-03-21T14:32:01;14.10;99.90
23827;DHT22;12094;50.822;4.376;2023-03-21T14:34:32;14.20;99.90
23827;DHT22;12094;50.822;4.376;2023-03-21T14:37:06;14.20;99.90
23827;DHT22;12094;50.822;4.376;2023-03-21T14:39:36;14.20;99.90
23827;DHT22;12094;50.822;4.376;2023-03-21T14:42:10;14.00;99.90
23827;DHT22;12094;50.822;4.376;2023-03-21T14:44:49;14.00;99.90
23827;DHT22;12094;50.822;4.376;2023-03-21T14:47:25;13.90;99.90
23827;DHT22;12094;50.822;4.376;2023-03-21T14:49:58;14.00;99.90
23827;DHT22;12094;50.822;4.376;2023-03-21T14:52:31;14.10;99.90
23827;DHT22;12094;50.822;4.376;2023-03-21T14:55:05;14.20;99.90
23827;DHT22;12094;50.822;4.376;2023-03-21T14:57:44;14.10;99.90
23827;DHT22;12094;50.822;4.376;2023-03-21T15:00:26;13.90;99.90
23827;DHT22;12094;50.822;4.376;2023-03-21T15:02:57;13.80;99.90
23827;DHT22;12094;50.822;4.376;2023-03-21T15:05:36;13.80;99.90
23827;DHT22;12094;50.822;4.376;2023-03-21T15:11:01;14.40;99.90
23827;DHT22;12094;50.822;4.376;2023-03-21T15:13:47;14.30;99.90
23827;DHT22;12094;50.822;4.376;2023-03-21T15:16:22;14.20;99.90
23827;DHT22;12094;50.822;4.376;2023-03-21T15:18:52;13.90;99.90
23827;DHT22;12094;50.822;4.376;2023-03-21T15:21:29;13.60;99.90
23827;DHT22;12094;50.822;4.376;2023-03-21T15:24:21;13.50;99.90
23827;DHT22;12094;50.822;4.376;2023-03-21T15:26:58;13.50;99.90
23827;DHT22;12094;50.822;4.376;2023-03-21T15:29:43;13.50;99.90
23827;DHT22;12094;50.822;4.376;2023-03-21T15:32:38;13.60;99.90
23827;DHT22;12094;50.822;4.376;2023-03-21T15:35:13;13.60;99.90
23827;DHT22;12094;50.822;4.376;2023-03-21T15:37:42;13.40;99.90
23827;DHT22;12094;50.822;4.376;2023-03-21T15:40:24;13.50;99.90
23827;DHT22;12094;50.822;4.376;2023-03-21T15:43:04;13.30;99.90
23827;DHT22;12094;50.822;4.376;2023-03-21T15:45:46;13.40;99.90
23827;DHT22;12094;50.822;4.376;2023-03-21T15:48:14;13.60;99.90
23827;DHT22;12094;50.822;4.376;2023-03-21T15:50:55;13.70;99.90
23827;DHT22;12094;50.822;4.376;2023-03-21T15:53:25;13.50;99.90
23827;DHT22;12094;50.822;4.376;2023-03-21T15:55:57;13.30;99.90
23827;DHT22;12094;50.822;4.376;2023-03-21T15:58:34;13.30;99.90
23827;DHT22;12094;50.822;4.376;2023-03-21T16:01:16;13.30;99.90
23827;DHT22;12094;50.822;4.376;2023-03-21T16:04:01;13.20;99.90
23827;DHT22;12094;50.822;4.376;2023-03-21T16:06:33;13.20;99.90
23827;DHT22;12094;50.822;4.376;2023-03-21T16:11:40;13.10;99.90
23827;DHT22;12094;50.822;4.376;2023-03-21T16:14:12;13.20;99.90
23827;DHT22;12094;50.822;4.376;2023-03-21T16:16:43;13.10;99.90
23827;DHT22;12094;50.822;4.376;2023-03-21T16:19:12;12.90;99.90
23827;DHT22;12094;50.822;4.376;2023-03-21T16:21:40;12.90;99.90
23827;DHT22;12094;50.822;4.376;2023-03-21T16:24:11;12.90;99.90
23827;DHT22;12094;50.822;4.376;2023-03-21T16:26:47;13.00;99.90
23827;DHT22;12094;50.822;4.376;2023-03-21T16:29:18;13.10;99.90
23827;DHT22;12094;50.822;4.376;2023-03-21T16:31:47;13.10;99.90
23827;DHT22;12094;50.822;4.376;2023-03-21T16:34:15;13.00;99.90
23827;DHT22;12094;50.822;4.376;2023-03-21T16:36:50;13.00;99.90
23827;DHT22;12094;50.822;4.376;2023-03-21T16:39:19;13.00;99.90
23827;DHT22;12094;50.822;4.376;2023-03-21T16:41:48;13.10;99.90
23827;DHT22;12094;50.822;4.376;2023-03-21T16:44:18;13.10;99.90
23827;DHT22;12094;50.822;4.376;2023-03-21T16:46:45;13.10;99.90
23827;DHT22;12094;50.822;4.376;2023-03-21T16:49:24;13.20;99.90
23827;DHT22;12094;50.822;4.376;2023-03-21T16:51:56;13.20;99.90
23827;DHT22;12094;50.822;4.376;2023-03-21T16:54:25;13.20;99.90
23827;DHT22;12094;50.822;4.376;2023-03-21T16:56:57;13.20;99.90
23827;DHT22;12094;50.822;4.376;2023-03-21T16:59:25;13.20;99.90
23827;DHT22;12094;50.822;4.376;2023-03-21T17:01:52;13.10;99.90
23827;DHT22;12094;50.822;4.376;2023-03-21T17:04:26;13.20;99.90
23827;DHT22;12094;50.822;4.376;2023-03-21T17:06:55;13.20;99.90
23827;DHT22;12094;50.822;4.376;2023-03-21T17:09:25;13.20;99.90
23827;DHT22;12094;50.822;4.376;2023-03-21T17:11:55;13.20;99.90
23827;DHT22;12094;50.822;4.376;2023-03-21T17:14:24;13.20;99.90
23827;DHT22;12094;50.822;4.376;2023-03-21T17:16:51;13.20;99.90
23827;DHT22;12094;50.822;4.376;2023-03-21T17:19:21;13.20;99.90
23827;DHT22;12094;50.822;4.376;2023-03-21T17:21:55;13.20;99.90
23827;DHT22;12094;50.822;4.376;2023-03-21T17:24:25;13.10;99.90
23827;DHT22;12094;50.822;4.376;2023-03-21T17:26:53;13.10;99.90
23827;DHT22;12094;50.822;4.376;2023-03-21T17:29:21;13.00;99.90
23827;DHT22;12094;50.822;4.376;2023-03-21T17:31:50;13.00;99.90
23827;DHT22;12094;50.822;4.376;2023-03-21T17:34:18;13.00;99.90
23827;DHT22;12094;50.822;4.376;2023-03-21T17:36:50;13.00;99.90
23827;DHT22;12094;50.822;4.376;2023-03-21T17:39:24;13.00;99.90
23827;DHT22;12094;50.822;4.376;2023-03-21T17:41:53;13.00;99.90
23827;DHT22;12094;50.822;4.376;2023-03-21T17:44:22;13.00;99.90
23827;DHT22;12094;50.822;4.376;2023-03-21T17:46:53;13.00;99.90
23827;DHT22;12094;50.822;4.376;2023-03-21T17:49:22;12.90;99.90
23827;DHT22;12094;50.822;4.376;2023-03-21T17:51:51;12.90;99.90
23827;DHT22;12094;50.822;4.376;2023-03-21T17:54:19;12.90;99.90
23827;DHT22;12094;50.822;4.376;2023-03-21T17:56:47;12.90;99.90
23827;DHT22;12094;50.822;4.376;2023-03-21T17:59:14;12.90;99.90
23827;DHT22;12094;50.822;4.376;2023-03-21T18:01:42;12.90;99.90
23827;DHT22;12094;50.822;4.376;2023-03-21T18:04:10;12.90;99.90
23827;DHT22;12094;50.822;4.376;2023-03-21T18:06:37;12.90;99.90
23827;DHT22;12094;50.822;4.376;2023-03-21T18:09:16;12.90;99.90
23827;DHT22;12094;50.822;4.376;2023-03-21T18:11:49;12.80;99.90
23827;DHT22;12094;50.822;4.376;2023-03-21T18:14:17;12.80;99.90